Time;durP1;ratioP1;P1;durP2;ratioP2;P2;SDS_P1;SDS_P2;PMS_P1;PMS_P2;Temp;Humidity;BMP_temperature;BMP_pressure;BME280_temperature;BME280_humidity;BME280_pressure;Samples;Min_cycle;Max_cycle;Signal;HPM_P1;HPM_P2
2020/12/22 00:02:02;;;;;;;15.97;10.97;;;6.20;99.90;;;;;;5020400;28;20465;-67
2020/12/22 00:04:28;;;;;;;16.70;10.50;;;6.10;99.90;;;;;;5019167;28;20522;-67
2020/12/22 00:06:57;;;;;;;14.90;11.30;;;6.10;99.90;;;;;;5019822;28;20492;-67
2020/12/22 00:09:23;;;;;;;17.10;9.73;;;6.20;99.90;;;;;;5018763;28;20457;-67
2020/12/22 00:11:49;;;;;;;18.73;10.87;;;6.20;99.90;;;;;;5018410;28;20461;-65
2020/12/22 00:14:15;;;;;;;18.57;11.60;;;6.20;99.90;;;;;;5018205;28;20457;-67
2020/12/22 00:16:41;;;;;;;17.70;11.43;;;6.20;99.90;;;;;;5020069;28;20452;-65
2020/12/22 00:19:08;;;;;;;18.20;11.40;;;6.20;99.90;;;;;;5019085;28;20471;-66
2020/12/22 00:21:35;;;;;;;16.80;10.93;;;6.20;99.90;;;;;;5017586;28;20457;-66
2020/12/22 00:24:01;;;;;;;17.40;10.43;;;6.30;99.90;;;;;;5019014;28;20453;-66
2020/12/22 00:26:30;;;;;;;15.97;10.20;;;6.30;99.90;;;;;;5017847;28;20453;-65
2020/12/22 00:28:57;;;;;;;18.17;11.63;;;6.30;99.90;;;;;;5016671;28;20522;-65
2020/12/22 00:31:23;;;;;;;21.13;11.63;;;6.30;99.90;;;;;;5015769;28;20456;-61
2020/12/22 00:33:49;;;;;;;18.43;12.10;;;6.20;99.90;;;;;;5015186;28;20461;-61
2020/12/22 00:36:16;;;;;;;17.93;11.20;;;6.30;99.90;;;;;;5015785;28;20520;-62
2020/12/22 00:38:44;;;;;;;16.60;11.83;;;6.30;99.90;;;;;;5016332;28;20782;-62
2020/12/22 00:41:13;;;;;;;16.43;11.50;;;6.30;99.90;;;;;;5016775;28;20470;-61
2020/12/22 00:43:40;;;;;;;17.60;10.97;;;6.30;99.90;;;;;;5017714;28;20456;-61
2020/12/22 00:46:07;;;;;;;18.30;12.63;;;6.30;99.90;;;;;;5018852;28;20744;-61
2020/12/22 00:48:33;;;;;;;17.40;11.60;;;6.30;99.90;;;;;;5018874;28;20456;-62
2020/12/22 00:50:59;;;;;;;18.00;10.97;;;6.30;99.90;;;;;;5019338;28;20536;-61
2020/12/22 00:53:26;;;;;;;18.03;11.60;;;6.30;99.90;;;;;;5018362;28;20461;-65
2020/12/22 00:55:52;;;;;;;16.80;11.70;;;6.30;99.90;;;;;;5018685;28;20802;-61
2020/12/22 00:58:18;;;;;;;17.27;11.77;;;6.30;99.90;;;;;;5018490;28;20957;-61
2020/12/22 01:00:44;;;;;;;16.00;11.50;;;6.40;99.90;;;;;;5018649;28;20518;-65
2020/12/22 01:03:10;;;;;;;17.43;11.40;;;6.30;99.90;;;;;;5018111;28;20786;-66
2020/12/22 01:05:36;;;;;;;18.67;12.73;;;6.40;99.90;;;;;;5018246;28;20463;-66
2020/12/22 01:08:02;;;;;;;18.70;11.77;;;6.40;99.90;;;;;;5017846;28;20457;-65
2020/12/22 01:10:29;;;;;;;15.97;12.00;;;6.40;99.90;;;;;;5018236;28;20457;-66
2020/12/22 01:12:55;;;;;;;17.23;11.90;;;6.50;99.90;;;;;;5018193;28;20472;-61
2020/12/22 01:15:21;;;;;;;17.40;11.90;;;6.40;99.90;;;;;;5018008;28;20487;-61
2020/12/22 01:17:47;;;;;;;20.77;10.77;;;6.40;99.90;;;;;;5018738;28;20488;-61
2020/12/22 01:20:13;;;;;;;16.10;11.20;;;6.40;99.90;;;;;;5017962;28;20461;-61
2020/12/22 01:22:39;;;;;;;21.70;10.87;;;6.40;99.90;;;;;;5017823;28;20456;-66
2020/12/22 01:25:05;;;;;;;16.40;11.13;;;6.40;99.90;;;;;;5018614;28;20488;-65
2020/12/22 01:27:32;;;;;;;19.77;12.20;;;6.50;99.90;;;;;;5018341;28;20473;-65
2020/12/22 01:29:58;;;;;;;18.73;13.40;;;6.50;99.90;;;;;;5018209;28;20806;-61
2020/12/22 01:32:24;;;;;;;14.90;10.23;;;6.50;99.90;;;;;;5018408;28;20456;-62
2020/12/22 01:34:50;;;;;;;18.17;12.70;;;6.50;99.90;;;;;;5018653;28;20592;-65
2020/12/22 01:37:16;;;;;;;24.67;11.83;;;6.50;99.90;;;;;;5018903;28;20456;-64
2020/12/22 01:39:42;;;;;;;16.83;11.20;;;6.50;99.90;;;;;;5019329;28;20457;-65
2020/12/22 01:42:09;;;;;;;19.10;11.93;;;6.60;99.90;;;;;;5019127;28;20461;-64
2020/12/22 01:44:36;;;;;;;16.70;11.90;;;6.70;99.90;;;;;;5019435;28;20453;-66
2020/12/22 01:47:02;;;;;;;17.53;11.10;;;6.70;99.90;;;;;;5019103;28;20476;-64
2020/12/22 01:49:28;;;;;;;15.17;11.67;;;6.60;99.90;;;;;;5018383;28;20456;-64
2020/12/22 01:51:56;;;;;;;17.20;12.40;;;6.60;99.90;;;;;;5018501;28;20453;-66
2020/12/22 01:54:23;;;;;;;18.40;12.23;;;6.70;99.90;;;;;;5018045;28;20461;-65
2020/12/22 01:56:49;;;;;;;18.07;13.13;;;6.80;99.90;;;;;;5018145;28;20527;-61
2020/12/22 01:59:17;;;;;;;19.67;13.27;;;6.70;99.90;;;;;;5017258;28;20595;-62
2020/12/22 02:01:44;;;;;;;16.27;11.23;;;6.70;99.90;;;;;;5017146;28;20920;-62
2020/12/22 02:04:11;;;;;;;19.07;12.30;;;6.80;99.90;;;;;;5017167;28;20484;-60
2020/12/22 02:06:38;;;;;;;16.50;10.93;;;6.80;99.90;;;;;;5017274;28;20457;-61
2020/12/22 02:09:06;;;;;;;18.23;11.73;;;6.90;99.90;;;;;;5017105;28;20453;-61
2020/12/22 02:11:34;;;;;;;17.13;10.73;;;6.90;99.90;;;;;;5017011;28;20457;-61
2020/12/22 02:14:01;;;;;;;20.37;11.70;;;7.00;99.90;;;;;;5016962;28;20488;-61
2020/12/22 02:16:28;;;;;;;17.80;11.63;;;6.90;99.90;;;;;;5016932;28;20481;-65
2020/12/22 02:18:56;;;;;;;20.10;12.50;;;6.90;99.90;;;;;;5016718;28;20468;-65
2020/12/22 02:21:23;;;;;;;15.93;12.00;;;6.90;99.90;;;;;;5016885;28;20468;-65
2020/12/22 02:23:51;;;;;;;16.80;12.10;;;6.80;99.90;;;;;;5016470;28;20472;-65
2020/12/22 02:26:18;;;;;;;20.00;12.10;;;6.80;99.90;;;;;;5016935;28;20457;-65
2020/12/22 02:28:44;;;;;;;17.70;12.50;;;6.70;99.90;;;;;;5016614;28;20496;-64
2020/12/22 02:31:11;;;;;;;17.40;12.30;;;6.70;99.90;;;;;;5016583;28;20749;-65
2020/12/22 02:33:37;;;;;;;17.10;11.40;;;6.70;99.90;;;;;;5018448;28;20480;-65
2020/12/22 02:36:07;;;;;;;22.97;14.07;;;6.70;99.90;;;;;;5016899;28;20973;-65
2020/12/22 02:38:34;;;;;;;18.70;12.53;;;6.60;99.90;;;;;;5016648;28;20449;-65
2020/12/22 02:41:00;;;;;;;19.90;12.73;;;6.60;99.90;;;;;;5016538;28;20465;-66
2020/12/22 02:43:27;;;;;;;23.13;14.13;;;6.50;99.90;;;;;;5016493;28;20558;-65
2020/12/22 02:45:53;;;;;;;19.97;12.13;;;6.50;99.90;;;;;;5016354;28;20499;-62
2020/12/22 02:48:19;;;;;;;19.10;12.77;;;6.60;99.90;;;;;;5016751;28;20457;-61
2020/12/22 02:50:45;;;;;;;23.87;13.03;;;6.60;99.90;;;;;;5016099;28;20939;-60
2020/12/22 02:53:11;;;;;;;18.33;12.40;;;6.60;99.90;;;;;;5016329;28;20911;-61
2020/12/22 02:55:38;;;;;;;21.90;13.60;;;6.70;99.90;;;;;;5016083;28;20891;-61
2020/12/22 02:58:04;;;;;;;18.57;12.57;;;6.70;99.90;;;;;;5017151;28;20468;-61
2020/12/22 03:00:30;;;;;;;18.00;12.60;;;6.70;99.90;;;;;;5016271;28;20461;-65
2020/12/22 03:02:56;;;;;;;19.87;13.23;;;6.80;99.90;;;;;;5016234;28;20804;-60
2020/12/22 03:05:22;;;;;;;21.20;13.07;;;6.80;99.90;;;;;;5016175;28;20457;-61
2020/12/22 03:07:48;;;;;;;23.00;13.17;;;6.80;99.90;;;;;;5015504;28;20472;-65
2020/12/22 03:10:16;;;;;;;17.60;12.37;;;6.80;99.90;;;;;;5016028;28;20556;-61
2020/12/22 03:12:44;;;;;;;20.27;12.90;;;6.80;99.90;;;;;;5015854;28;20464;-60
2020/12/22 03:15:10;;;;;;;19.07;12.37;;;6.80;99.90;;;;;;5017865;28;20505;-60
2020/12/22 03:17:38;;;;;;;20.87;12.90;;;6.70;99.90;;;;;;5018742;28;20519;-63
2020/12/22 03:20:06;;;;;;;21.67;13.20;;;6.70;99.90;;;;;;5015675;28;20461;-61
2020/12/22 03:22:32;;;;;;;22.03;13.90;;;6.70;99.90;;;;;;5015784;28;20471;-60
2020/12/22 03:24:58;;;;;;;21.40;14.00;;;6.70;99.90;;;;;;5015845;28;20460;-66
2020/12/22 03:27:24;;;;;;;21.90;14.30;;;6.70;99.90;;;;;;5015756;28;20471;-67
2020/12/22 03:29:51;;;;;;;21.10;13.10;;;6.70;99.90;;;;;;5015320;28;20982;-66
2020/12/22 03:32:17;;;;;;;19.77;13.00;;;6.70;99.90;;;;;;5015621;28;20851;-66
2020/12/22 03:34:43;;;;;;;23.80;14.60;;;6.70;99.90;;;;;;5015714;28;20492;-67
2020/12/22 03:37:09;;;;;;;22.20;15.40;;;6.70;99.90;;;;;;5015576;28;20471;-66
2020/12/22 03:39:35;;;;;;;22.47;13.73;;;6.70;99.90;;;;;;5015268;28;20977;-68
2020/12/22 03:42:01;;;;;;;20.93;13.47;;;6.60;99.90;;;;;;5015197;28;20934;-67
2020/12/22 03:44:27;;;;;;;22.20;13.40;;;6.60;99.90;;;;;;5015506;28;20491;-65
2020/12/22 03:46:54;;;;;;;22.30;13.67;;;6.60;99.90;;;;;;5015296;28;20457;-66
2020/12/22 03:49:20;;;;;;;23.23;13.07;;;6.60;99.90;;;;;;5015196;28;20919;-60
2020/12/22 03:51:46;;;;;;;22.07;13.57;;;6.60;99.90;;;;;;5015519;28;20461;-60
2020/12/22 03:54:13;;;;;;;21.13;13.60;;;6.70;99.90;;;;;;5015210;28;20467;-59
2020/12/22 03:56:39;;;;;;;23.60;13.77;;;6.70;99.90;;;;;;5015345;28;20539;-61
2020/12/22 03:59:05;;;;;;;26.43;15.27;;;6.70;99.90;;;;;;5015414;28;20472;-66
2020/12/22 04:01:31;;;;;;;20.43;12.20;;;6.70;99.90;;;;;;5015228;28;20460;-65
2020/12/22 04:03:58;;;;;;;23.37;15.17;;;6.70;99.90;;;;;;5015205;28;20464;-65
2020/12/22 04:06:24;;;;;;;24.93;14.90;;;6.70;99.90;;;;;;5015196;28;20449;-66
2020/12/22 04:08:52;;;;;;;23.30;15.23;;;6.80;99.90;;;;;;5014914;28;20492;-65
2020/12/22 04:11:19;;;;;;;26.57;14.77;;;6.70;99.90;;;;;;5015145;28;20465;-61
2020/12/22 04:13:45;;;;;;;25.37;15.27;;;6.80;99.90;;;;;;5015177;28;20918;-65
2020/12/22 04:16:11;;;;;;;21.33;13.50;;;6.80;99.90;;;;;;5015167;28;20800;-59
2020/12/22 04:18:37;;;;;;;24.67;13.60;;;6.80;99.90;;;;;;5017582;28;20461;-61
2020/12/22 04:21:04;;;;;;;25.03;14.93;;;6.80;99.90;;;;;;5019774;28;20460;-66
2020/12/22 04:23:30;;;;;;;28.23;15.10;;;6.80;99.90;;;;;;5019187;28;20460;-66
2020/12/22 04:25:57;;;;;;;25.30;14.67;;;6.80;99.90;;;;;;5018894;28;20460;-62
2020/12/22 04:28:23;;;;;;;19.07;13.97;;;6.80;99.90;;;;;;5018739;28;20843;-60
2020/12/22 04:30:49;;;;;;;21.93;14.27;;;6.80;99.90;;;;;;5019117;28;20440;-66
2020/12/22 04:33:15;;;;;;;22.33;13.40;;;6.80;99.90;;;;;;5018845;28;20460;-66
2020/12/22 04:35:42;;;;;;;24.03;14.50;;;6.80;99.90;;;;;;5018701;28;20476;-66
2020/12/22 04:38:09;;;;;;;24.60;14.77;;;6.80;99.90;;;;;;5018632;28;20487;-65
2020/12/22 04:40:35;;;;;;;27.70;14.60;;;6.90;99.90;;;;;;5018673;28;20940;-66
2020/12/22 04:43:01;;;;;;;25.83;14.00;;;6.90;99.90;;;;;;5018437;28;20465;-66
2020/12/22 04:45:29;;;;;;;21.47;14.37;;;6.90;99.90;;;;;;5018194;28;20804;-61
2020/12/22 04:47:56;;;;;;;24.97;15.00;;;7.00;99.90;;;;;;5018682;28;21064;-65
2020/12/22 04:50:23;;;;;;;21.90;12.60;;;7.00;99.90;;;;;;5018635;28;20476;-66
2020/12/22 04:52:51;;;;;;;23.63;14.97;;;6.90;99.90;;;;;;5018459;28;20467;-61
2020/12/22 04:55:19;;;;;;;23.33;12.90;;;7.00;99.90;;;;;;5018256;28;20481;-60
2020/12/22 04:57:48;;;;;;;19.33;12.80;;;7.00;99.90;;;;;;5018352;28;20475;-65
2020/12/22 05:00:14;;;;;;;23.20;14.30;;;7.00;99.90;;;;;;5018335;28;20542;-67
2020/12/22 05:02:42;;;;;;;27.03;13.90;;;7.00;99.90;;;;;;5018233;28;20478;-67
2020/12/22 05:05:09;;;;;;;24.37;13.83;;;7.10;99.90;;;;;;5018730;28;20453;-60
2020/12/22 05:07:35;;;;;;;24.87;13.87;;;7.10;99.90;;;;;;5018129;28;20456;-67
2020/12/22 05:10:05;;;;;;;22.40;13.47;;;7.10;99.90;;;;;;5018744;28;20479;-67
2020/12/22 05:12:33;;;;;;;21.30;13.20;;;7.20;99.90;;;;;;5018333;28;20449;-60
2020/12/22 05:15:01;;;;;;;22.90;12.50;;;7.20;99.90;;;;;;5018198;28;20457;-61
2020/12/22 05:17:27;;;;;;;24.20;13.57;;;7.20;99.90;;;;;;5018685;28;20793;-59
2020/12/22 05:19:54;;;;;;;20.10;12.73;;;7.30;99.90;;;;;;5017893;28;20457;-60
2020/12/22 05:22:21;;;;;;;24.90;14.30;;;7.30;99.90;;;;;;5018333;28;20543;-67
2020/12/22 05:24:50;;;;;;;21.33;13.47;;;7.30;99.90;;;;;;5018306;28;20456;-66
2020/12/22 05:27:19;;;;;;;21.50;12.77;;;7.40;99.90;;;;;;5017961;28;20838;-67
2020/12/22 05:29:46;;;;;;;21.67;13.53;;;7.40;99.90;;;;;;5016191;28;20816;-67
2020/12/22 05:32:12;;;;;;;19.27;13.23;;;7.40;99.90;;;;;;5017903;28;20461;-67
2020/12/22 05:34:38;;;;;;;19.73;13.57;;;7.50;99.90;;;;;;5017803;28;20461;-61
2020/12/22 05:37:08;;;;;;;20.03;12.80;;;7.50;99.90;;;;;;5018282;28;20491;-61
2020/12/22 05:39:37;;;;;;;19.70;12.10;;;7.50;99.90;;;;;;5017609;28;20461;-61
2020/12/22 05:42:12;;;;;;;18.83;11.60;;;7.50;99.90;;;;;;5017652;28;20454;-61
2020/12/22 05:44:41;;;;;;;18.73;12.00;;;7.60;99.90;;;;;;5017173;28;20887;-61
2020/12/22 05:47:09;;;;;;;22.37;12.80;;;7.60;99.90;;;;;;5017529;28;20724;-61
2020/12/22 05:49:35;;;;;;;21.17;11.50;;;7.60;99.90;;;;;;5017231;28;20840;-68
2020/12/22 05:52:06;;;;;;;22.50;12.30;;;7.70;99.90;;;;;;5017830;28;20906;-68
2020/12/22 05:54:36;;;;;;;18.90;11.90;;;7.70;99.90;;;;;;5017963;28;20476;-61
2020/12/22 05:57:05;;;;;;;16.80;10.80;;;7.70;99.90;;;;;;5017108;28;20484;-60
2020/12/22 05:59:31;;;;;;;20.03;11.90;;;7.70;99.90;;;;;;5017332;28;20475;-68
2020/12/22 06:01:58;;;;;;;18.23;11.77;;;7.70;99.90;;;;;;5017104;28;20480;-61
2020/12/22 06:04:26;;;;;;;18.80;11.23;;;7.70;99.90;;;;;;5017059;28;20785;-61
2020/12/22 06:06:52;;;;;;;19.47;12.30;;;7.80;99.90;;;;;;5017021;28;20464;-61
2020/12/22 06:09:19;;;;;;;19.67;10.83;;;7.80;99.90;;;;;;5016960;28;20453;-67
2020/12/22 06:11:48;;;;;;;19.70;11.20;;;7.80;99.90;;;;;;5016982;28;20531;-67
2020/12/22 06:14:24;;;;;;;15.80;11.47;;;7.90;99.90;;;;;;5016879;28;20530;-67
2020/12/22 06:16:51;;;;;;;16.87;10.63;;;7.90;99.90;;;;;;5016932;28;20793;-61
2020/12/22 06:19:18;;;;;;;17.97;12.00;;;8.00;99.90;;;;;;5016868;28;20461;-61
2020/12/22 06:21:45;;;;;;;15.07;10.33;;;8.00;99.90;;;;;;5016742;28;20471;-61
2020/12/22 06:24:13;;;;;;;15.87;10.87;;;8.00;99.90;;;;;;5016887;28;20475;-67
2020/12/22 06:26:39;;;;;;;15.50;8.87;;;8.00;99.90;;;;;;5016617;28;20454;-68
2020/12/22 06:29:24;;;;;;;14.80;10.33;;;8.10;99.90;;;;;;5016515;28;20833;-61
2020/12/22 06:31:50;;;;;;;12.40;9.33;;;8.10;99.90;;;;;;5016730;28;20453;-60
2020/12/22 06:34:27;;;;;;;16.80;11.30;;;8.10;99.90;;;;;;5016454;28;20487;-67
2020/12/22 06:36:59;;;;;;;13.37;9.47;;;8.10;99.90;;;;;;5016281;28;20477;-67
2020/12/22 06:39:40;;;;;;;14.77;10.70;;;8.20;99.90;;;;;;5016406;28;20572;-67
2020/12/22 06:42:06;;;;;;;12.40;8.97;;;8.20;99.90;;;;;;5016007;28;20976;-67
2020/12/22 06:44:33;;;;;;;14.27;8.33;;;8.30;99.90;;;;;;5016441;28;20461;-67
2020/12/22 06:47:00;;;;;;;12.80;8.83;;;8.30;99.90;;;;;;5016730;28;20464;-60
2020/12/22 06:49:46;;;;;;;11.80;8.50;;;8.40;99.90;;;;;;5016302;28;20452;-61
2020/12/22 06:52:34;;;;;;;11.13;8.63;;;8.50;99.90;;;;;;5015890;28;20471;-62
2020/12/22 06:55:02;;;;;;;12.97;8.50;;;8.50;99.90;;;;;;5016111;28;20440;-68
2020/12/22 06:57:47;;;;;;;11.53;8.43;;;8.50;99.90;;;;;;5016849;28;20588;-68
2020/12/22 07:00:37;;;;;;;14.57;7.80;;;8.50;99.90;;;;;;5016643;28;20894;-61
2020/12/22 07:03:11;;;;;;;11.30;7.90;;;8.60;99.90;;;;;;5017430;28;20473;-67
2020/12/22 07:05:41;;;;;;;11.30;7.77;;;8.60;99.90;;;;;;5017111;28;20456;-67
2020/12/22 07:08:09;;;;;;;10.43;8.40;;;8.70;99.90;;;;;;5016443;28;20453;-67
2020/12/22 07:10:41;;;;;;;12.33;8.00;;;8.70;99.90;;;;;;5015895;28;20456;-68
2020/12/22 07:13:09;;;;;;;13.20;8.27;;;8.80;99.90;;;;;;5016657;28;20787;-61
2020/12/22 07:15:37;;;;;;;8.30;7.43;;;8.80;99.90;;;;;;5016899;28;20555;-61
2020/12/22 07:18:09;;;;;;;9.53;7.57;;;8.90;99.90;;;;;;5017326;28;20476;-68
2020/12/22 07:20:37;;;;;;;9.53;8.13;;;8.90;99.90;;;;;;5017218;28;20464;-61
2020/12/22 07:23:04;;;;;;;10.87;7.93;;;9.00;99.90;;;;;;5016018;28;20492;-67
2020/12/22 07:25:32;;;;;;;9.70;7.70;;;9.00;99.90;;;;;;5015912;28;20463;-66
2020/12/22 07:28:00;;;;;;;10.10;8.43;;;9.10;99.90;;;;;;5015733;28;20461;-67
2020/12/22 07:30:27;;;;;;;8.73;7.50;;;9.10;99.90;;;;;;5015925;28;20801;-66
2020/12/22 07:32:53;;;;;;;8.77;7.80;;;9.10;99.90;;;;;;5016153;28;20461;-68
2020/12/22 07:35:19;;;;;;;11.07;7.60;;;9.20;99.90;;;;;;5015501;28;20515;-62
2020/12/22 07:37:45;;;;;;;8.93;7.90;;;9.20;99.90;;;;;;5015559;28;20461;-64
2020/12/22 07:40:12;;;;;;;8.77;6.57;;;9.20;99.90;;;;;;5015387;28;20923;-63
2020/12/22 07:42:39;;;;;;;10.77;8.20;;;9.30;99.90;;;;;;5015395;28;20461;-63
2020/12/22 07:45:07;;;;;;;10.47;7.70;;;9.30;99.90;;;;;;5015806;28;20534;-62
2020/12/22 07:47:33;;;;;;;8.83;6.53;;;9.40;99.90;;;;;;5015576;28;20457;-66
2020/12/22 07:50:12;;;;;;;10.30;7.33;;;9.40;99.90;;;;;;5015391;28;20456;-64
2020/12/22 07:52:38;;;;;;;7.50;6.80;;;9.40;99.90;;;;;;5014989;28;20452;-63
2020/12/22 07:55:04;;;;;;;7.70;7.00;;;9.50;99.90;;;;;;5015198;28;20456;-61
2020/12/22 07:57:30;;;;;;;6.87;6.20;;;9.50;99.90;;;;;;5015459;28;20456;-66
2020/12/22 08:00:03;;;;;;;8.00;6.67;;;9.50;99.90;;;;;;5015395;28;20521;-62
2020/12/22 08:02:29;;;;;;;8.10;6.23;;;9.50;99.90;;;;;;5015416;28;20449;-61
2020/12/22 08:04:56;;;;;;;14.87;9.07;;;9.60;99.90;;;;;;5015230;28;20857;-66
2020/12/22 08:07:22;;;;;;;6.20;5.60;;;9.60;99.90;;;;;;5015100;28;20779;-67
2020/12/22 08:09:49;;;;;;;6.07;5.37;;;9.60;99.90;;;;;;5015299;28;20768;-61
2020/12/22 08:12:15;;;;;;;5.73;5.13;;;9.70;99.90;;;;;;5015303;28;20485;-68
2020/12/22 08:14:42;;;;;;;5.37;4.87;;;9.70;99.90;;;;;;5015259;28;20550;-67
2020/12/22 08:17:13;;;;;;;5.93;4.90;;;9.70;99.90;;;;;;5014995;28;20522;-61
2020/12/22 08:19:40;;;;;;;6.07;5.03;;;9.80;99.90;;;;;;5015117;28;20441;-67
2020/12/22 08:22:07;;;;;;;4.50;4.10;;;9.80;99.90;;;;;;5014981;28;20468;-68
2020/12/22 08:24:34;;;;;;;5.67;4.90;;;9.80;99.90;;;;;;5014855;28;20467;-67
2020/12/22 08:27:02;;;;;;;4.53;4.10;;;9.90;99.90;;;;;;5015166;28;20472;-67
2020/12/22 08:29:29;;;;;;;7.67;4.77;;;9.90;99.90;;;;;;5014801;28;20496;-65
2020/12/22 08:31:59;;;;;;;3.43;3.13;;;10.00;99.90;;;;;;5014972;28;20456;-61
2020/12/22 08:34:26;;;;;;;3.50;3.20;;;10.00;99.90;;;;;;5015576;28;20883;-61
2020/12/22 08:36:52;;;;;;;3.43;3.13;;;10.00;99.90;;;;;;5014785;28;20485;-66
2020/12/22 08:39:21;;;;;;;3.80;3.43;;;10.10;99.90;;;;;;5014822;28;20473;-67
2020/12/22 08:41:49;;;;;;;3.67;3.30;;;10.10;99.90;;;;;;5014864;28;20483;-66
2020/12/22 08:44:15;;;;;;;3.50;3.03;;;10.20;99.90;;;;;;5014497;28;20483;-62
2020/12/22 08:46:42;;;;;;;2.70;2.50;;;10.20;99.90;;;;;;5014828;28;20457;-61
2020/12/22 08:49:10;;;;;;;2.90;2.70;;;10.20;99.90;;;;;;5014874;28;20517;-61
2020/12/22 08:51:37;;;;;;;2.13;1.93;;;10.30;99.90;;;;;;5016010;28;20822;-60
2020/12/22 08:54:04;;;;;;;2.90;2.20;;;10.40;99.90;;;;;;5015530;28;20461;-62
2020/12/22 08:56:30;;;;;;;2.10;1.90;;;10.40;99.90;;;;;;5014772;28;20784;-61
2020/12/22 08:59:06;;;;;;;2.03;1.70;;;10.40;99.90;;;;;;5014964;28;20480;-60
2020/12/22 09:01:40;;;;;;;1.87;1.60;;;10.40;99.90;;;;;;5014986;28;20511;-61
2020/12/22 09:04:06;;;;;;;2.00;1.70;;;10.40;99.90;;;;;;5016280;28;20543;-61
2020/12/22 09:06:34;;;;;;;2.10;1.90;;;10.50;99.90;;;;;;5018399;28;20468;-60
2020/12/22 09:09:03;;;;;;;1.70;1.60;;;10.50;99.90;;;;;;5018447;28;20473;-61
2020/12/22 09:11:29;;;;;;;1.93;1.50;;;10.60;99.90;;;;;;5018613;28;20814;-61
2020/12/22 09:14:05;;;;;;;2.00;1.60;;;10.60;99.90;;;;;;5018612;28;20914;-61
2020/12/22 09:16:45;;;;;;;2.40;1.37;;;10.70;99.90;;;;;;5019167;28;20507;-61
2020/12/22 09:19:11;;;;;;;2.83;1.73;;;10.70;99.90;;;;;;5018097;28;20789;-61
2020/12/22 09:21:38;;;;;;;2.23;1.70;;;10.70;99.90;;;;;;5018208;28;20467;-61
2020/12/22 09:24:05;;;;;;;8.50;3.50;;;10.70;99.90;;;;;;5018361;28;20457;-61
2020/12/22 09:26:31;;;;;;;18.27;7.03;;;10.70;99.90;;;;;;5018040;28;20472;-61
2020/12/22 09:28:57;;;;;;;1.70;1.43;;;10.70;99.90;;;;;;5019111;28;20512;-61
2020/12/22 09:31:24;;;;;;;2.40;1.80;;;10.80;99.90;;;;;;5018528;28;20468;-61
2020/12/22 09:33:50;;;;;;;1.70;1.60;;;10.80;99.90;;;;;;5018028;28;20461;-61
2020/12/22 09:36:16;;;;;;;1.50;1.40;;;10.80;99.90;;;;;;5018359;28;20480;-61
2020/12/22 09:38:42;;;;;;;3.50;1.70;;;10.90;99.90;;;;;;5017397;28;20903;-60
2020/12/22 09:41:09;;;;;;;1.60;1.50;;;10.90;99.90;;;;;;5018017;28;20453;-60
2020/12/22 09:43:35;;;;;;;3.07;1.53;;;10.90;99.90;;;;;;5017446;28;20478;-61
2020/12/22 09:46:01;;;;;;;3.07;1.63;;;11.00;99.90;;;;;;5017346;28;20735;-60
2020/12/22 09:48:27;;;;;;;1.43;1.33;;;11.00;99.90;;;;;;5017341;28;20467;-60
2020/12/22 09:50:53;;;;;;;1.83;1.43;;;11.00;99.90;;;;;;5017303;28;20456;-61
2020/12/22 09:53:20;;;;;;;1.40;1.17;;;11.00;99.90;;;;;;5017345;28;20461;-61
2020/12/22 09:55:46;;;;;;;2.53;1.20;;;11.10;99.90;;;;;;5018085;28;20480;-61
2020/12/22 09:58:13;;;;;;;1.97;1.60;;;11.10;99.90;;;;;;5016995;28;20464;-61
2020/12/22 10:00:39;;;;;;;1.50;1.40;;;11.20;99.90;;;;;;5017449;28;20559;-59
2020/12/22 10:03:06;;;;;;;1.73;1.50;;;11.20;99.90;;;;;;5017309;28;20453;-61
2020/12/22 10:05:32;;;;;;;1.50;1.40;;;11.30;99.90;;;;;;5021831;28;20786;-61
2020/12/22 10:07:58;;;;;;;1.57;1.30;;;11.30;99.90;;;;;;5017034;28;20457;-62
2020/12/22 10:10:25;;;;;;;1.43;1.10;;;11.40;99.90;;;;;;5017679;28;20467;-61
2020/12/22 10:12:51;;;;;;;1.20;1.10;;;11.50;99.90;;;;;;5017663;28;20457;-61
2020/12/22 10:15:17;;;;;;;3.57;1.37;;;11.50;99.90;;;;;;5016406;28;20919;-61
2020/12/22 10:17:44;;;;;;;1.63;1.10;;;11.50;99.90;;;;;;5017136;28;20472;-61
2020/12/22 10:20:10;;;;;;;1.40;1.03;;;11.60;99.90;;;;;;5017184;28;20889;-60
2020/12/22 10:22:36;;;;;;;2.00;1.30;;;11.60;99.90;;;;;;5020898;28;20465;-61
2020/12/22 10:25:02;;;;;;;2.50;1.10;;;11.60;99.90;;;;;;5017349;28;20473;-60
2020/12/22 10:27:28;;;;;;;1.13;0.90;;;11.60;99.90;;;;;;5017007;28;20461;-60
2020/12/22 10:29:54;;;;;;;1.50;1.10;;;11.70;99.90;;;;;;5016909;28;20485;-60
2020/12/22 10:32:21;;;;;;;1.40;1.13;;;11.70;99.90;;;;;;5016930;28;20472;-61
2020/12/22 10:34:47;;;;;;;1.40;1.20;;;11.80;99.90;;;;;;5016787;28;20751;-61
2020/12/22 10:37:13;;;;;;;3.00;1.00;;;11.80;99.90;;;;;;5016858;28;20876;-60
2020/12/22 10:39:40;;;;;;;1.13;1.03;;;11.80;99.90;;;;;;5017784;28;20460;-61
2020/12/22 10:42:06;;;;;;;1.37;1.10;;;11.80;99.90;;;;;;5017791;28;20468;-61
2020/12/22 10:44:32;;;;;;;1.40;1.10;;;11.90;99.90;;;;;;5017099;28;20457;-60
2020/12/22 10:46:58;;;;;;;1.30;1.10;;;11.90;99.90;;;;;;5016667;28;20526;-61
2020/12/22 10:49:25;;;;;;;2.07;1.00;;;11.90;99.90;;;;;;5016476;28;20469;-60
2020/12/22 10:51:53;;;;;;;1.33;1.00;;;12.00;99.90;;;;;;5016511;28;20456;-60
2020/12/22 10:54:19;;;;;;;1.17;1.07;;;12.00;99.90;;;;;;5016579;28;20468;-61
2020/12/22 10:56:45;;;;;;;1.07;0.90;;;12.00;99.90;;;;;;5016270;28;20488;-61
2020/12/22 10:59:11;;;;;;;2.40;1.20;;;12.00;99.90;;;;;;5016384;28;20461;-60
2020/12/22 11:01:39;;;;;;;1.40;1.10;;;12.00;99.90;;;;;;5016248;28;20767;-62
2020/12/22 11:04:05;;;;;;;1.30;1.00;;;12.00;99.90;;;;;;5016036;28;20909;-61
2020/12/22 11:06:39;;;;;;;1.60;1.40;;;12.10;99.90;;;;;;5017398;28;20457;-60
2020/12/22 11:09:05;;;;;;;1.20;1.00;;;12.00;99.90;;;;;;5017820;28;20457;-61
2020/12/22 11:11:31;;;;;;;1.80;1.50;;;12.10;99.90;;;;;;5017015;28;20457;-61
2020/12/22 11:13:57;;;;;;;6.87;3.97;;;12.10;99.90;;;;;;5017854;28;20472;-62
2020/12/22 11:16:26;;;;;;;1.13;1.03;;;12.20;99.90;;;;;;5017902;28;20507;-61
2020/12/22 11:18:52;;;;;;;1.43;1.33;;;12.20;99.90;;;;;;5016127;28;20862;-60
2020/12/22 11:21:20;;;;;;;1.33;1.00;;;12.30;99.90;;;;;;5016145;28;20484;-62
2020/12/22 11:23:47;;;;;;;1.87;1.13;;;12.30;99.90;;;;;;5015963;28;20457;-59
2020/12/22 11:26:17;;;;;;;2.07;1.10;;;12.30;99.90;;;;;;5016891;28;20457;-61
2020/12/22 11:28:43;;;;;;;3.60;1.10;;;12.40;99.90;;;;;;5016653;28;20492;-61
2020/12/22 11:31:09;;;;;;;1.20;1.10;;;12.40;99.90;;;;;;5018000;28;20956;-61
2020/12/22 11:33:35;;;;;;;3.00;2.70;;;12.50;99.90;;;;;;5017729;28;20642;-60
2020/12/22 11:36:02;;;;;;;1.10;1.00;;;12.50;99.90;;;;;;5016518;28;20824;-60
2020/12/22 11:38:28;;;;;;;1.17;1.07;;;12.50;99.90;;;;;;5017715;28;20487;-60
2020/12/22 11:40:56;;;;;;;1.10;0.87;;;12.50;99.90;;;;;;5016913;28;20590;-60
2020/12/22 11:43:22;;;;;;;2.63;1.40;;;12.60;99.90;;;;;;5015774;28;20936;-61
2020/12/22 11:45:48;;;;;;;1.83;1.27;;;12.60;99.90;;;;;;5016597;28;20456;-61
2020/12/22 11:48:14;;;;;;;1.20;1.10;;;12.70;99.90;;;;;;5017163;28;20457;-60
2020/12/22 11:50:41;;;;;;;4.57;3.80;;;12.70;99.90;;;;;;5018472;28;20460;-62
2020/12/22 11:53:07;;;;;;;2.10;1.50;;;12.80;99.90;;;;;;5019812;28;20471;-60
2020/12/22 11:55:33;;;;;;;1.30;1.00;;;12.80;99.90;;;;;;5019424;28;20460;-60
2020/12/22 11:58:00;;;;;;;1.40;1.20;;;12.80;99.90;;;;;;5016449;28;20460;-60
2020/12/22 12:00:26;;;;;;;2.97;1.10;;;12.80;99.90;;;;;;5016469;28;20460;-61
2020/12/22 12:02:52;;;;;;;6.73;1.20;;;12.80;99.90;;;;;;5015597;28;20481;-61
2020/12/22 12:05:19;;;;;;;1.30;1.17;;;12.80;99.90;;;;;;5015922;28;20488;-60
2020/12/22 12:07:45;;;;;;;1.83;1.43;;;12.90;99.90;;;;;;5015243;28;20540;-65
2020/12/22 12:10:11;;;;;;;1.97;1.40;;;12.90;99.90;;;;;;5015536;28;20468;-61
2020/12/22 12:12:37;;;;;;;1.77;1.30;;;12.90;99.90;;;;;;5015791;28;20460;-61
2020/12/22 12:15:04;;;;;;;2.27;1.20;;;12.90;99.90;;;;;;5016116;28;20461;-59
2020/12/22 12:17:33;;;;;;;1.40;1.30;;;13.00;99.90;;;;;;5015527;28;20484;-61
2020/12/22 12:19:59;;;;;;;1.37;1.20;;;13.00;99.90;;;;;;5015627;28;20457;-59
2020/12/22 12:22:25;;;;;;;2.50;1.40;;;13.10;99.90;;;;;;5015294;28;20974;-60
2020/12/22 12:24:51;;;;;;;1.70;1.37;;;13.20;99.90;;;;;;5015568;28;20460;-61
2020/12/22 12:27:17;;;;;;;1.87;1.37;;;13.20;99.90;;;;;;5015608;28;20460;-60
2020/12/22 12:29:43;;;;;;;1.80;1.00;;;13.30;99.90;;;;;;5014798;28;20484;-60
2020/12/22 12:32:10;;;;;;;2.20;1.40;;;13.40;99.90;;;;;;5015770;28;20457;-68
2020/12/22 12:34:37;;;;;;;1.43;1.33;;;13.40;99.90;;;;;;5015370;28;20457;-68
2020/12/22 12:37:03;;;;;;;4.10;1.37;;;13.50;99.90;;;;;;5014312;28;20977;-67
2020/12/22 12:39:29;;;;;;;1.50;1.00;;;13.80;99.90;;;;;;5017159;28;20790;-67
2020/12/22 12:41:55;;;;;;;2.33;1.00;;;14.60;99.90;;;;;;5020092;28;20467;-68
2020/12/22 12:44:21;;;;;;;1.20;1.10;;;15.40;99.90;;;;;;5018370;28;20976;-67